Time;durP1;ratioP1;P1;durP2;ratioP2;P2;SDS_P1;SDS_P2;PMS_P1;PMS_P2;Temp;Humidity;BMP_temperature;BMP_pressure;BME280_temperature;BME280_humidity;BME280_pressure;Samples;Min_cycle;Max_cycle;Signal;HPM_P1;HPM_P2
2021/06/06 00:00:28;;;;;;;49.13;19.50;;;;;;;;;;5033820;28;20025;-64
2021/06/06 00:02:54;;;;;;;54.07;20.90;;;;;;;;;;5032797;28;20550;-64
2021/06/06 00:05:20;;;;;;;51.40;19.50;;;;;;;;;;5033219;28;20025;-64
2021/06/06 00:07:45;;;;;;;51.67;21.20;;;;;;;;;;5033065;28;20033;-64
2021/06/06 00:10:11;;;;;;;54.60;21.33;;;;;;;;;;5033118;28;20117;-64
2021/06/06 00:12:37;;;;;;;53.03;20.17;;;;;;;;;;5033003;28;20033;-64
2021/06/06 00:15:04;;;;;;;52.67;20.40;;;;;;;;;;5033391;28;20021;-64
2021/06/06 00:17:29;;;;;;;57.47;21.57;;;;;;;;;;5032765;28;20065;-64
2021/06/06 00:19:55;;;;;;;52.80;20.07;;;;;;;;;;5033289;28;20483;-64
2021/06/06 00:22:20;;;;;;;55.20;21.00;;;;;;;;;;5032940;28;20493;-64
2021/06/06 00:24:45;;;;;;;54.77;20.83;;;;;;;;;;5033235;28;20025;-64
2021/06/06 00:27:11;;;;;;;53.30;21.57;;;;;;;;;;5032929;28;20029;-64
2021/06/06 00:29:36;;;;;;;57.63;20.70;;;;;;;;;;5033015;28;20095;-64
2021/06/06 00:32:02;;;;;;;57.73;21.20;;;;;;;;;;5032521;28;20528;-64
2021/06/06 00:34:28;;;;;;;53.33;20.50;;;;;;;;;;5032783;28;20053;-64
2021/06/06 00:36:54;;;;;;;50.10;20.27;;;;;;;;;;5032771;28;20037;-64
2021/06/06 00:39:19;;;;;;;49.80;19.50;;;;;;;;;;5032917;28;20030;-64
2021/06/06 00:41:45;;;;;;;51.53;21.40;;;;;;;;;;5032250;28;20470;-64
2021/06/06 00:44:10;;;;;;;53.67;20.60;;;;;;;;;;5032852;28;20068;-64
2021/06/06 00:46:36;;;;;;;47.73;19.13;;;;;;;;;;5039664;28;20040;-64
2021/06/06 00:49:02;;;;;;;42.07;18.10;;;;;;;;;;5032602;28;20025;-64
2021/06/06 00:51:30;;;;;;;47.33;17.97;;;;;;;;;;5032001;28;20029;-64
2021/06/06 00:54:00;;;;;;;41.93;17.90;;;;;;;;;;5031828;28;20021;-64
2021/06/06 00:56:26;;;;;;;43.53;17.27;;;;;;;;;;5032023;28;20029;-64
2021/06/06 00:58:52;;;;;;;39.43;17.60;;;;;;;;;;5032588;28;20040;-64
2021/06/06 01:01:18;;;;;;;41.20;18.33;;;;;;;;;;5032149;28;20048;-64
2021/06/06 01:03:47;;;;;;;39.97;17.70;;;;;;;;;;5038109;28;20053;-64
2021/06/06 01:06:15;;;;;;;37.60;16.43;;;;;;;;;;5047144;28;20041;-64
2021/06/06 01:08:40;;;;;;;38.20;17.10;;;;;;;;;;5032204;28;20044;-64
2021/06/06 01:11:16;;;;;;;37.03;16.77;;;;;;;;;;5030985;28;20052;-64
2021/06/06 01:13:46;;;;;;;36.97;16.57;;;;;;;;;;5031139;28;20501;-64
2021/06/06 01:16:25;;;;;;;40.23;17.77;;;;;;;;;;5030594;28;20572;-64
2021/06/06 01:18:52;;;;;;;37.13;16.23;;;;;;;;;;5030608;28;20036;-64
2021/06/06 01:21:24;;;;;;;45.30;17.93;;;;;;;;;;5030419;28;20100;-64
2021/06/06 01:24:15;;;;;;;40.50;17.13;;;;;;;;;;5031208;28;20426;-64
2021/06/06 01:27:10;;;;;;;39.43;18.57;;;;;;;;;;4961302;28;20043;-64
2021/06/06 01:29:44;;;;;;;41.53;17.63;;;;;;;;;;4945682;28;20046;-64
2021/06/06 01:32:36;;;;;;;38.60;17.23;;;;;;;;;;4950978;28;20045;-64
2021/06/06 01:35:08;;;;;;;37.50;16.83;;;;;;;;;;4957146;28;20555;-64
2021/06/06 01:37:33;;;;;;;;;;;;;;;;;;4955376;28;20563;-64
2021/06/06 01:40:18;;;;;;;35.77;16.70;;;;;;;;;;4969570;28;19921;-64
2021/06/06 01:42:48;;;;;;;37.27;16.90;;;;;;;;;;4960854;28;20023;-64
2021/06/06 01:45:20;;;;;;;35.43;15.27;;;;;;;;;;4969303;28;20075;-64
2021/06/06 01:47:47;;;;;;;36.15;17.90;;;;;;;;;;4961320;28;20610;-64
2021/06/06 01:50:20;;;;;;;37.90;16.27;;;;;;;;;;4969189;28;20122;-64
2021/06/06 01:52:46;;;;;;;39.67;17.87;;;;;;;;;;4962496;28;20031;-64
2021/06/06 01:55:15;;;;;;;38.87;17.20;;;;;;;;;;4969114;28;20037;-64
2021/06/06 01:57:40;;;;;;;41.40;17.47;;;;;;;;;;4963892;28;20035;-64
2021/06/06 02:00:12;;;;;;;39.60;17.50;;;;;;;;;;4951766;28;20026;-64
2021/06/06 02:02:38;;;;;;;43.10;17.83;;;;;;;;;;4969440;28;20474;-64
2021/06/06 02:05:13;;;;;;;41.43;17.87;;;;;;;;;;5034572;28;20028;-64
2021/06/06 02:07:40;;;;;;;39.33;16.73;;;;;;;;;;5034089;28;20099;-64
2021/06/06 02:10:26;;;;;;;36.17;15.83;;;;;;;;;;5034155;28;20053;-64
2021/06/06 02:12:54;;;;;;;37.40;14.83;;;;;;;;;;5034066;28;20048;-64
2021/06/06 02:15:24;;;;;;;37.17;15.60;;;;;;;;;;5034434;28;20034;-64
2021/06/06 02:17:54;;;;;;;35.60;15.80;;;;;;;;;;5034147;28;20366;-64
2021/06/06 02:20:21;;;;;;;36.47;16.10;;;;;;;;;;5034049;28;20022;-64
2021/06/06 02:22:46;;;;;;;35.27;15.03;;;;;;;;;;5033718;28;20016;-64
2021/06/06 02:25:14;;;;;;;31.07;14.73;;;;;;;;;;5034370;28;20037;-64
2021/06/06 02:27:52;;;;;;;35.07;15.07;;;;;;;;;;5036965;28;20508;-64
2021/06/06 02:30:24;;;;;;;33.77;15.63;;;;;;;;;;5047145;28;20036;-64
2021/06/06 02:33:16;;;;;;;36.90;15.27;;;;;;;;;;5030553;28;20021;-64
2021/06/06 02:35:51;;;;;;;26.43;12.50;;;;;;;;;;4995067;28;20052;-64
2021/06/06 02:38:21;;;;;;;28.27;12.30;;;;;;;;;;5032939;28;20260;-64
2021/06/06 02:40:52;;;;;;;28.53;12.47;;;;;;;;;;5035194;28;20096;-64
2021/06/06 02:43:26;;;;;;;29.07;12.47;;;;;;;;;;5033193;28;20027;-64
2021/06/06 02:45:52;;;;;;;30.97;13.47;;;;;;;;;;5033624;28;20026;-64
2021/06/06 02:48:23;;;;;;;28.40;13.10;;;;;;;;;;5033644;28;20445;-64
2021/06/06 02:50:49;;;;;;;34.05;13.48;;;;;;;;;;5033546;28;20467;-64
2021/06/06 02:53:26;;;;;;;34.30;15.03;;;;;;;;;;5033589;28;20026;-64
2021/06/06 02:55:56;;;;;;;34.23;15.37;;;;;;;;;;5033861;28;20025;-64
2021/06/06 02:58:42;;;;;;;38.17;15.50;;;;;;;;;;5033621;28;20025;-64
2021/06/06 03:01:14;;;;;;;40.80;16.00;;;;;;;;;;5022293;28;20086;-64
2021/06/06 03:03:40;;;;;;;41.33;15.70;;;;;;;;;;5033074;28;20046;-64
2021/06/06 03:06:08;;;;;;;39.50;16.80;;;;;;;;;;5033317;28;20475;-64
2021/06/06 03:08:35;;;;;;;42.37;16.40;;;;;;;;;;5033312;28;20036;-64
2021/06/06 03:11:01;;;;;;;46.50;15.77;;;;;;;;;;5033228;28;20026;-64
2021/06/06 03:13:30;;;;;;;44.30;16.83;;;;;;;;;;5033835;28;20025;-64
2021/06/06 03:15:57;;;;;;;37.60;15.27;;;;;;;;;;5032832;28;20128;-64
2021/06/06 03:18:23;;;;;;;48.43;17.03;;;;;;;;;;5019997;28;20025;-64
2021/06/06 03:20:51;;;;;;;39.77;15.90;;;;;;;;;;5033140;28;20076;-64
2021/06/06 03:23:20;;;;;;;39.03;15.27;;;;;;;;;;5033004;28;20014;-64
2021/06/06 03:25:51;;;;;;;33.03;14.27;;;;;;;;;;5032512;28;20017;-64
2021/06/06 03:28:17;;;;;;;41.03;15.20;;;;;;;;;;5033173;28;20482;-64
2021/06/06 03:30:50;;;;;;;37.17;15.20;;;;;;;;;;5032349;28;20371;-64
2021/06/06 03:33:17;;;;;;;38.70;15.47;;;;;;;;;;5032866;28;20025;-64
2021/06/06 03:35:43;;;;;;;43.13;15.83;;;;;;;;;;5032255;28;20017;-64
2021/06/06 03:38:11;;;;;;;37.43;14.53;;;;;;;;;;5042392;28;20071;-64
2021/06/06 03:40:37;;;;;;;41.60;15.70;;;;;;;;;;5052798;28;20025;-64
2021/06/06 03:43:04;;;;;;;35.23;14.70;;;;;;;;;;5033134;28;20430;-64
2021/06/06 03:45:29;;;;;;;41.13;14.77;;;;;;;;;;5032485;28;20029;-64
2021/06/06 03:47:55;;;;;;;36.83;14.13;;;;;;;;;;5032356;28;20030;-64
2021/06/06 03:50:21;;;;;;;32.13;13.30;;;;;;;;;;5032450;28;20067;-64
2021/06/06 03:52:46;;;;;;;32.10;11.90;;;;;;;;;;5032491;28;20034;-64
2021/06/06 03:55:13;;;;;;;30.13;11.13;;;;;;;;;;5032447;28;20466;-64
2021/06/06 03:57:38;;;;;;;29.10;11.00;;;;;;;;;;5032154;28;20073;-64
2021/06/06 04:00:14;;;;;;;27.80;11.83;;;;;;;;;;5032132;28;20029;-64
2021/06/06 04:02:40;;;;;;;30.53;11.30;;;;;;;;;;5031900;28;20115;-64
2021/06/06 04:05:05;;;;;;;30.23;11.67;;;;;;;;;;5032249;28;20049;-64
2021/06/06 04:07:30;;;;;;;27.33;11.10;;;;;;;;;;5032237;28;20402;-64
2021/06/06 04:09:56;;;;;;;26.77;10.83;;;;;;;;;;5032376;28;20044;-64
2021/06/06 04:12:21;;;;;;;23.07;10.17;;;;;;;;;;5032076;28;20021;-64
2021/06/06 04:14:46;;;;;;;26.73;9.40;;;;;;;;;;5032260;28;20100;-64
2021/06/06 04:17:12;;;;;;;25.37;10.70;;;;;;;;;;5031830;28;20373;-64
2021/06/06 04:19:37;;;;;;;28.17;11.13;;;;;;;;;;5032235;28;20029;-64
2021/06/06 04:22:02;;;;;;;23.00;9.83;;;;;;;;;;5031585;28;20025;-64
2021/06/06 04:24:28;;;;;;;26.33;10.10;;;;;;;;;;5032091;28;20028;-64
2021/06/06 04:26:53;;;;;;;25.50;10.27;;;;;;;;;;5031144;28;20079;-64
2021/06/06 04:29:18;;;;;;;27.03;10.37;;;;;;;;;;5031797;28;20067;-64
2021/06/06 04:31:44;;;;;;;23.60;10.10;;;;;;;;;;5031709;28;20026;-64
2021/06/06 04:34:09;;;;;;;27.67;10.47;;;;;;;;;;5031803;28;20359;-64
2021/06/06 04:36:35;;;;;;;25.80;10.27;;;;;;;;;;5031452;28;20025;-64
2021/06/06 04:39:00;;;;;;;27.50;10.57;;;;;;;;;;5031759;28;20033;-64
2021/06/06 04:41:25;;;;;;;27.97;11.50;;;;;;;;;;5031212;28;20028;-64
2021/06/06 04:43:51;;;;;;;28.27;10.17;;;;;;;;;;5031657;28;20021;-64
2021/06/06 04:46:16;;;;;;;27.23;10.33;;;;;;;;;;5031453;28;20021;-64
2021/06/06 04:48:43;;;;;;;26.00;10.03;;;;;;;;;;5031688;28;20478;-64
2021/06/06 04:51:10;;;;;;;29.70;10.47;;;;;;;;;;5031174;28;20524;-64
2021/06/06 04:53:36;;;;;;;27.40;10.37;;;;;;;;;;5031499;28;20045;-64
2021/06/06 04:56:01;;;;;;;26.13;9.97;;;;;;;;;;5031185;28;20033;-64
2021/06/06 04:58:27;;;;;;;25.77;9.33;;;;;;;;;;5031443;28;20040;-64
2021/06/06 05:00:53;;;;;;;23.83;10.17;;;;;;;;;;5031197;28;20013;-64
2021/06/06 05:03:19;;;;;;;21.50;8.90;;;;;;;;;;5030944;28;20520;-64
2021/06/06 05:05:45;;;;;;;22.73;9.20;;;;;;;;;;5030981;28;20021;-64
2021/06/06 05:08:11;;;;;;;22.70;10.03;;;;;;;;;;5031316;28;20493;-64
2021/06/06 05:10:37;;;;;;;23.50;9.30;;;;;;;;;;5031212;28;20463;-64
2021/06/06 05:13:03;;;;;;;20.20;8.93;;;;;;;;;;5013231;28;20457;-64
2021/06/06 05:15:28;;;;;;;21.97;9.03;;;;;;;;;;5031113;28;20030;-64
2021/06/06 05:17:54;;;;;;;23.77;9.97;;;;;;;;;;5031083;28;20057;-64
2021/06/06 05:20:21;;;;;;;23.87;9.40;;;;;;;;;;5030918;28;20017;-64
2021/06/06 05:22:46;;;;;;;20.97;8.73;;;;;;;;;;5030484;28;20112;-64
2021/06/06 05:25:12;;;;;;;20.27;7.70;;;;;;;;;;5030983;28;20156;-64
2021/06/06 05:27:37;;;;;;;20.67;9.07;;;;;;;;;;5030680;28;20088;-64
2021/06/06 05:30:04;;;;;;;23.57;8.97;;;;;;;;;;5031004;28;20032;-64
2021/06/06 05:32:29;;;;;;;21.47;9.23;;;;;;;;;;5030520;28;20029;-64
2021/06/06 05:34:55;;;;;;;20.23;8.73;;;;;;;;;;5030809;28;20477;-64
2021/06/06 05:37:20;;;;;;;20.67;9.57;;;;;;;;;;5030522;28;20041;-64
2021/06/06 05:39:45;;;;;;;21.07;9.33;;;;;;;;;;5030808;28;20017;-64
2021/06/06 05:42:11;;;;;;;20.67;8.20;;;;;;;;;;5030491;28;20040;-64
2021/06/06 05:44:36;;;;;;;17.43;7.53;;;;;;;;;;5030855;28;20101;-64
2021/06/06 05:47:02;;;;;;;18.97;7.97;;;;;;;;;;5030456;28;20048;-64
2021/06/06 05:49:27;;;;;;;16.67;8.00;;;;;;;;;;5030597;28;20112;-64
2021/06/06 05:51:53;;;;;;;19.80;8.70;;;;;;;;;;5030410;28;20538;-64
2021/06/06 05:54:19;;;;;;;19.40;8.67;;;;;;;;;;5030666;28;20112;-64
2021/06/06 05:56:44;;;;;;;18.10;7.97;;;;;;;;;;5030008;28;20466;-64
2021/06/06 05:59:09;;;;;;;17.83;8.10;;;;;;;;;;5030424;28;20087;-64
2021/06/06 06:01:35;;;;;;;19.33;8.30;;;;;;;;;;5029973;28;20033;-64
2021/06/06 06:04:00;;;;;;;21.57;9.53;;;;;;;;;;5030139;28;20054;-64
2021/06/06 06:06:25;;;;;;;18.87;9.00;;;;;;;;;;5030227;28;20057;-64
2021/06/06 06:08:51;;;;;;;18.97;7.97;;;;;;;;;;5030388;28;20040;-64
2021/06/06 06:11:18;;;;;;;16.03;7.73;;;;;;;;;;5029859;28;20029;-65
2021/06/06 06:13:44;;;;;;;15.50;7.33;;;;;;;;;;5030600;28;20025;-64
2021/06/06 06:16:11;;;;;;;16.90;7.83;;;;;;;;;;5029700;28;20428;-64
2021/06/06 06:18:37;;;;;;;16.43;7.67;;;;;;;;;;5030115;28;20040;-64
2021/06/06 06:21:03;;;;;;;18.83;8.27;;;;;;;;;;5030153;28;20029;-64
2021/06/06 06:23:28;;;;;;;18.47;8.43;;;;;;;;;;5030202;28;20028;-64
2021/06/06 06:25:54;;;;;;;16.97;8.47;;;;;;;;;;5030065;28;20029;-64
2021/06/06 06:28:19;;;;;;;17.77;8.30;;;;;;;;;;5030142;28;20071;-64
2021/06/06 06:30:44;;;;;;;18.33;8.40;;;;;;;;;;5029564;28;20018;-64
2021/06/06 06:33:10;;;;;;;22.97;9.10;;;;;;;;;;5030450;28;20036;-64
2021/06/06 06:35:35;;;;;;;21.87;9.30;;;;;;;;;;5031585;28;20132;-64
2021/06/06 06:38:02;;;;;;;22.00;8.87;;;;;;;;;;5030280;28;20121;-64
2021/06/06 06:40:27;;;;;;;23.17;9.60;;;;;;;;;;5029853;28;20021;-64
2021/06/06 06:42:54;;;;;;;22.13;8.90;;;;;;;;;;5029680;28;20100;-64
2021/06/06 06:45:21;;;;;;;20.33;8.10;;;;;;;;;;5029796;28;20021;-64
2021/06/06 06:47:47;;;;;;;20.70;8.40;;;;;;;;;;5029847;28;20025;-65
2021/06/06 06:50:16;;;;;;;21.73;9.40;;;;;;;;;;5032603;28;20072;-64
2021/06/06 06:52:41;;;;;;;18.50;8.67;;;;;;;;;;5033597;28;20477;-64
2021/06/06 06:55:08;;;;;;;22.47;9.07;;;;;;;;;;5033588;28;20087;-64
2021/06/06 06:57:33;;;;;;;21.90;9.00;;;;;;;;;;5033128;28;20076;-64
2021/06/06 06:59:59;;;;;;;21.07;8.90;;;;;;;;;;5033610;28;20466;-64
2021/06/06 07:02:24;;;;;;;24.73;8.90;;;;;;;;;;5033245;28;20064;-64
2021/06/06 07:04:50;;;;;;;22.80;9.17;;;;;;;;;;5034517;28;20091;-64
2021/06/06 07:07:15;;;;;;;25.40;10.17;;;;;;;;;;5040322;28;20105;-64
2021/06/06 07:09:41;;;;;;;21.83;8.93;;;;;;;;;;5033344;28;20104;-64
2021/06/06 07:12:07;;;;;;;22.93;9.67;;;;;;;;;;5033128;28;20022;-64
2021/06/06 07:14:32;;;;;;;20.73;9.40;;;;;;;;;;5033489;28;20370;-64
2021/06/06 07:16:57;;;;;;;22.93;7.80;;;;;;;;;;5033102;28;20088;-64
2021/06/06 07:19:22;;;;;;;26.83;9.60;;;;;;;;;;5032960;28;20075;-64
2021/06/06 07:21:48;;;;;;;23.30;9.30;;;;;;;;;;5039917;28;20143;-64
2021/06/06 07:24:13;;;;;;;24.17;9.97;;;;;;;;;;5052788;28;20036;-64
2021/06/06 07:26:40;;;;;;;26.03;10.27;;;;;;;;;;5044725;28;20025;-64
2021/06/06 07:29:09;;;;;;;21.33;9.07;;;;;;;;;;5032725;28;20417;-64
2021/06/06 07:31:34;;;;;;;23.17;10.50;;;;;;;;;;5032775;28;20474;-64
2021/06/06 07:33:59;;;;;;;25.57;9.90;;;;;;;;;;5033006;28;20261;-64
2021/06/06 07:36:25;;;;;;;24.87;10.07;;;;;;;;;;5032303;28;20040;-64
2021/06/06 07:38:51;;;;;;;28.03;10.73;;;;;;;;;;5032926;28;20042;-64
2021/06/06 07:41:17;;;;;;;25.63;9.93;;;;;;;;;;5032229;28;20052;-64
2021/06/06 07:43:42;;;;;;;28.83;10.63;;;;;;;;;;5032573;28;20021;-64
2021/06/06 07:46:08;;;;;;;31.17;10.40;;;;;;;;;;5032350;28;20032;-64
2021/06/06 07:48:33;;;;;;;29.23;11.40;;;;;;;;;;5032414;28;20025;-64
2021/06/06 07:50:59;;;;;;;32.77;11.93;;;;;;;;;;5032258;28;20436;-64
2021/06/06 07:53:24;;;;;;;28.70;10.30;;;;;;;;;;5032552;28;20033;-64
2021/06/06 07:55:51;;;;;;;30.63;10.93;;;;;;;;;;5032289;28;20108;-64
2021/06/06 07:58:27;;;;;;;28.30;11.53;;;;;;;;;;5032252;28;20052;-64
2021/06/06 08:00:53;;;;;;;30.53;11.07;;;;;;;;;;5031022;28;20028;-64
2021/06/06 08:03:18;;;;;;;36.67;12.30;;;;;;;;;;5031968;28;20046;-64
2021/06/06 08:05:44;;;;;;;34.30;12.97;;;;;;;;;;5032234;28;20029;-64
2021/06/06 08:08:10;;;;;;;34.70;13.10;;;;;;;;;;5032735;28;20018;-64
2021/06/06 08:10:37;;;;;;;32.47;12.57;;;;;;;;;;5032059;28;20112;-64
2021/06/06 08:13:03;;;;;;;35.97;13.10;;;;;;;;;;5031757;28;20039;-64
2021/06/06 08:15:29;;;;;;;35.33;12.70;;;;;;;;;;5032161;28;20017;-64
2021/06/06 08:17:56;;;;;;;32.50;12.67;;;;;;;;;;5031796;28;20021;-64
2021/06/06 08:20:24;;;;;;;43.70;14.17;;;;;;;;;;5031951;28;20084;-64
2021/06/06 08:22:49;;;;;;;34.40;12.93;;;;;;;;;;5031861;28;20390;-64
2021/06/06 08:25:15;;;;;;;40.37;14.33;;;;;;;;;;5031802;28;20034;-64
2021/06/06 08:27:44;;;;;;;36.50;13.57;;;;;;;;;;5031703;28;20112;-64
2021/06/06 08:30:11;;;;;;;37.67;13.47;;;;;;;;;;5035960;28;20065;-64
2021/06/06 08:32:37;;;;;;;33.83;11.93;;;;;;;;;;5031293;28;20037;-64
2021/06/06 08:35:03;;;;;;;33.40;12.70;;;;;;;;;;5031477;28;20451;-64
2021/06/06 08:37:28;;;;;;;33.07;13.90;;;;;;;;;;5031111;28;20029;-64
2021/06/06 08:39:54;;;;;;;33.40;12.30;;;;;;;;;;5031945;28;20135;-64
2021/06/06 08:42:25;;;;;;;29.27;12.43;;;;;;;;;;5031467;28;20052;-64
2021/06/06 08:45:26;;;;;;;35.10;13.23;;;;;;;;;;5031811;28;20481;-65
2021/06/06 08:47:51;;;;;;;32.20;12.30;;;;;;;;;;4970000;28;20026;-64
2021/06/06 08:50:21;;;;;;;33.30;13.20;;;;;;;;;;4970050;28;20045;-64
2021/06/06 08:53:25;;;;;;;35.37;14.17;;;;;;;;;;4969827;28;20468;-64
2021/06/06 08:56:20;;;;;;;28.43;11.77;;;;;;;;;;4951453;28;20083;-64
2021/06/06 08:58:49;;;;;;;28.83;11.23;;;;;;;;;;4947423;29;20027;-64
2021/06/06 09:01:44;;;;;;;27.30;11.40;;;;;;;;;;4954359;28;20039;-64
2021/06/06 09:04:15;;;;;;;28.73;12.13;;;;;;;;;;4933915;29;20502;-64
2021/06/06 09:06:58;;;;;;;22.33;9.33;;;;;;;;;;4950272;29;20046;-64
2021/06/06 09:09:26;;;;;;;18.07;9.10;;;;;;;;;;4950472;29;20082;-65
2021/06/06 09:11:52;;;;;;;18.73;8.40;;;;;;;;;;4950024;28;20027;-65
2021/06/06 09:14:17;;;;;;;19.60;8.47;;;;;;;;;;4950174;28;20478;-64
2021/06/06 09:17:09;;;;;;;19.27;8.77;;;;;;;;;;4950000;29;20036;-64
2021/06/06 09:19:55;;;;;;;20.37;8.13;;;;;;;;;;4947225;29;20579;-64
2021/06/06 09:22:52;;;;;;;19.43;8.30;;;;;;;;;;4947762;28;20790;-64
2021/06/06 09:25:29;;;;;;;19.30;7.47;;;;;;;;;;4969342;28;20551;-65
2021/06/06 09:28:04;;;;;;;15.67;7.07;;;;;;;;;;4970658;28;20124;-65
2021/06/06 09:30:30;;;;;;;13.60;6.43;;;;;;;;;;4969481;28;20050;-65
2021/06/06 09:33:03;;;;;;;17.97;7.27;;;;;;;;;;4969190;28;20182;-65
2021/06/06 09:35:33;;;;;;;14.77;7.07;;;;;;;;;;4983838;28;20426;-65
2021/06/06 09:38:05;;;;;;;14.43;6.63;;;;;;;;;;4970090;28;20050;-65
2021/06/06 09:40:35;;;;;;;16.97;7.57;;;;;;;;;;4969368;28;20038;-65
2021/06/06 09:43:01;;;;;;;17.20;7.33;;;;;;;;;;4969093;28;20109;-65
2021/06/06 09:45:32;;;;;;;18.93;8.07;;;;;;;;;;4969334;28;20133;-65
2021/06/06 09:48:05;;;;;;;19.63;8.37;;;;;;;;;;4969107;28;20093;-65
2021/06/06 09:50:35;;;;;;;16.10;7.90;;;;;;;;;;4969269;28;20106;-65
2021/06/06 09:53:11;;;;;;;17.43;8.47;;;;;;;;;;4968883;28;20056;-64
2021/06/06 09:55:36;;;;;;;17.67;8.37;;;;;;;;;;4969137;28;20047;-65
2021/06/06 09:58:10;;;;;;;16.07;8.20;;;;;;;;;;4968863;28;20030;-65
2021/06/06 10:00:38;;;;;;;15.17;7.50;;;;;;;;;;4984743;28;20030;-65
2021/06/06 10:03:06;;;;;;;15.40;7.13;;;;;;;;;;5029942;28;20111;-65
2021/06/06 10:05:33;;;;;;;13.80;7.27;;;;;;;;;;5030517;28;20426;-65
2021/06/06 10:08:05;;;;;;;13.43;6.93;;;;;;;;;;5030323;28;20478;-65
2021/06/06 10:10:33;;;;;;;12.82;7.03;;;;;;;;;;5030373;28;20075;-65
2021/06/06 10:13:01;;;;;;;13.97;6.27;;;;;;;;;;5030181;28;20366;-65
2021/06/06 10:15:52;;;;;;;10.13;5.87;;;;;;;;;;5030273;28;20029;-65
2021/06/06 10:18:28;;;;;;;12.43;5.93;;;;;;;;;;4943489;28;20142;-65
2021/06/06 10:21:02;;;;;;;11.90;5.67;;;;;;;;;;4968400;28;20027;-65
2021/06/06 10:23:32;;;;;;;12.33;6.00;;;;;;;;;;4968992;28;20439;-65
2021/06/06 10:26:20;;;;;;;9.93;5.17;;;;;;;;;;4970119;28;20114;-65
2021/06/06 10:28:50;;;;;;;9.73;5.77;;;;;;;;;;4953284;29;20591;-65
2021/06/06 10:31:33;;;;;;;10.73;5.33;;;;;;;;;;4952786;29;20031;-65
2021/06/06 10:34:00;;;;;;;9.53;5.00;;;;;;;;;;4966094;28;20081;-65
2021/06/06 10:36:28;;;;;;;10.70;5.10;;;;;;;;;;4953042;29;20035;-65
2021/06/06 10:38:53;;;;;;;10.57;5.30;;;;;;;;;;4969273;28;20023;-65
2021/06/06 10:41:22;;;;;;;8.20;4.80;;;;;;;;;;4967256;28;20491;-65
2021/06/06 10:44:14;;;;;;;8.57;4.77;;;;;;;;;;4969878;28;20528;-65
2021/06/06 10:46:42;;;;;;;10.18;5.18;;;;;;;;;;4957675;28;20067;-65
2021/06/06 10:49:27;;;;;;;9.63;4.75;;;;;;;;;;4972318;28;20035;-65
2021/06/06 10:52:00;;;;;;;8.43;4.53;;;;;;;;;;4952396;29;20351;-65
2021/06/06 10:54:53;;;;;;;8.98;5.15;;;;;;;;;;4956925;28;20098;-65
2021/06/06 10:57:30;;;;;;;9.63;4.93;;;;;;;;;;4977855;28;20086;-65
2021/06/06 11:00:22;;;;;;;9.20;5.20;;;;;;;;;;4991497;28;20082;-65
2021/06/06 11:02:57;;;;;;;9.77;4.93;;;;;;;;;;4967317;28;20042;-65
2021/06/06 11:05:45;;;;;;;9.80;5.40;;;;;;;;;;4972033;28;20018;-65
2021/06/06 11:08:40;;;;;;;10.13;5.07;;;;;;;;;;4895483;29;20047;-65
2021/06/06 11:11:43;;;;;;;10.00;4.80;;;;;;;;;;4881514;29;20059;-65
2021/06/06 11:14:18;;;;;;;11.23;5.70;;;;;;;;;;4839850;29;20037;-65
2021/06/06 11:16:52;;;;;;;10.47;5.27;;;;;;;;;;4838337;29;20069;-65
2021/06/06 11:19:35;;;;;;;10.40;5.27;;;;;;;;;;4839675;29;20063;-65
2021/06/06 11:22:21;;;;;;;11.83;5.77;;;;;;;;;;4839128;29;20049;-65
2021/06/06 11:24:48;;;;;;;12.87;5.80;;;;;;;;;;4839712;29;20175;-65
2021/06/06 11:27:32;;;;;;;12.03;5.90;;;;;;;;;;4836042;29;20038;-65
2021/06/06 11:30:05;;;;;;;10.75;5.68;;;;;;;;;;4839692;29;20030;-65
2021/06/06 11:32:49;;;;;;;12.33;6.23;;;;;;;;;;4839270;29;20046;-65
2021/06/06 11:35:37;;;;;;;11.10;5.60;;;;;;;;;;4839942;29;20033;-65
2021/06/06 11:38:24;;;;;;;11.00;5.50;;;;;;;;;;4834410;29;20037;-65
2021/06/06 11:40:52;;;;;;;12.50;6.30;;;;;;;;;;4857493;29;20304;-65
2021/06/06 11:43:24;;;;;;;10.57;6.17;;;;;;;;;;4857980;29;20021;-65
2021/06/06 11:45:52;;;;;;;12.60;6.03;;;;;;;;;;4980571;28;20037;-65
2021/06/06 11:48:25;;;;;;;13.57;6.70;;;;;;;;;;5026829;28;20021;-65
2021/06/06 11:50:52;;;;;;;11.50;6.27;;;;;;;;;;5031073;28;20355;-64
2021/06/06 11:53:20;;;;;;;11.93;6.43;;;;;;;;;;5027808;28;20096;-64
2021/06/06 11:55:51;;;;;;;10.60;6.27;;;;;;;;;;5031875;28;20022;-65
2021/06/06 11:58:25;;;;;;;13.30;6.57;;;;;;;;;;5028527;28;20021;-65
2021/06/06 12:01:09;;;;;;;14.97;7.70;;;;;;;;;;5030685;28;20259;-64
2021/06/06 12:03:36;;;;;;;11.10;6.17;;;;;;;;;;5042362;28;20041;-65
2021/06/06 12:06:08;;;;;;;11.83;6.53;;;;;;;;;;5048856;28;20041;-64
2021/06/06 12:08:53;;;;;;;11.10;6.27;;;;;;;;;;5019535;28;20028;-65
2021/06/06 12:11:29;;;;;;;12.13;6.53;;;;;;;;;;5031619;28;20033;-65
2021/06/06 12:14:15;;;;;;;12.30;6.73;;;;;;;;;;5032031;28;20018;-64
2021/06/06 12:17:06;;;;;;;11.67;6.13;;;;;;;;;;4969128;28;20500;-65
2021/06/06 12:19:40;;;;;;;11.13;6.37;;;;;;;;;;4967993;28;20165;-65
2021/06/06 12:22:21;;;;;;;12.73;6.80;;;;;;;;;;4959059;28;20043;-65
2021/06/06 12:25:09;;;;;;;11.63;5.97;;;;;;;;;;4945825;28;20019;-65
2021/06/06 12:27:45;;;;;;;13.00;6.90;;;;;;;;;;4958740;28;20069;-65
2021/06/06 12:30:23;;;;;;;14.57;6.73;;;;;;;;;;4964179;28;20104;-65
2021/06/06 12:32:51;;;;;;;12.10;6.60;;;;;;;;;;4957016;28;20023;-65
2021/06/06 12:35:19;;;;;;;12.70;7.27;;;;;;;;;;4969431;28;20035;-65
2021/06/06 12:37:48;;;;;;;12.07;7.20;;;;;;;;;;4959402;28;20022;-65
2021/06/06 12:40:15;;;;;;;13.50;7.73;;;;;;;;;;4970237;28;20038;-65
2021/06/06 12:42:40;;;;;;;15.63;8.20;;;;;;;;;;4960529;28;20074;-65
2021/06/06 12:45:08;;;;;;;14.03;8.10;;;;;;;;;;4970312;28;20023;-65
2021/06/06 12:47:37;;;;;;;16.27;7.97;;;;;;;;;;4960920;28;20026;-65
2021/06/06 12:50:32;;;;;;;15.77;8.10;;;;;;;;;;4970250;28;20030;-65
2021/06/06 12:53:16;;;;;;;17.10;8.17;;;;;;;;;;4957823;28;20036;-65
2021/06/06 12:55:43;;;;;;;16.07;8.20;;;;;;;;;;5051322;28;20373;-65
2021/06/06 12:58:35;;;;;;;14.73;8.20;;;;;;;;;;5031340;28;20108;-65
2021/06/06 13:01:14;;;;;;;15.38;8.20;;;;;;;;;;5028246;28;20069;-65
2021/06/06 13:03:41;;;;;;;16.07;7.97;;;;;;;;;;5030746;28;20068;-65
2021/06/06 13:06:33;;;;;;;13.80;7.60;;;;;;;;;;5030663;28;20033;-64
2021/06/06 13:09:06;;;;;;;16.10;7.90;;;;;;;;;;5016446;28;20041;-65
2021/06/06 13:11:34;;;;;;;16.63;8.63;;;;;;;;;;5030425;28;20053;-65
2021/06/06 13:14:07;;;;;;;16.30;8.37;;;;;;;;;;5031391;28;20382;-65
2021/06/06 13:16:34;;;;;;;15.47;7.97;;;;;;;;;;5030401;28;20323;-65
2021/06/06 13:19:04;;;;;;;16.07;8.27;;;;;;;;;;5031117;28;20430;-65
2021/06/06 13:21:35;;;;;;;15.63;8.10;;;;;;;;;;5030918;28;20029;-65
2021/06/06 13:24:17;;;;;;;17.00;8.90;;;;;;;;;;5030906;28;20045;-65
2021/06/06 13:26:44;;;;;;;17.03;8.97;;;;;;;;;;5030641;28;20051;-65
2021/06/06 13:29:14;;;;;;;15.77;8.03;;;;;;;;;;5030617;28;20025;-65
2021/06/06 13:31:41;;;;;;;14.57;8.50;;;;;;;;;;5030673;28;20478;-65
2021/06/06 13:34:08;;;;;;;17.03;8.90;;;;;;;;;;5043964;28;20017;-65
2021/06/06 13:36:34;;;;;;;18.00;8.97;;;;;;;;;;5030228;28;20037;-65
2021/06/06 13:39:10;;;;;;;15.20;8.17;;;;;;;;;;5030459;28;20017;-64
2021/06/06 13:41:35;;;;;;;15.90;8.83;;;;;;;;;;5030427;28;20039;-64
2021/06/06 13:44:01;;;;;;;15.87;8.47;;;;;;;;;;5030674;28;20473;-64
2021/06/06 13:46:26;;;;;;;18.13;8.80;;;;;;;;;;5030109;28;20120;-64
2021/06/06 13:48:52;;;;;;;17.07;8.83;;;;;;;;;;5030826;28;20056;-64
2021/06/06 13:51:17;;;;;;;18.13;8.97;;;;;;;;;;5030478;28;20709;-65
2021/06/06 13:53:42;;;;;;;18.07;8.83;;;;;;;;;;5030608;28;20076;-65
2021/06/06 13:56:08;;;;;;;18.63;9.30;;;;;;;;;;5030145;28;20033;-64
2021/06/06 13:58:34;;;;;;;17.30;9.20;;;;;;;;;;5030638;28;20032;-65
2021/06/06 14:00:59;;;;;;;18.67;9.83;;;;;;;;;;5034495;28;20025;-64
2021/06/06 14:03:35;;;;;;;17.90;9.23;;;;;;;;;;5034266;28;20125;-65
2021/06/06 14:06:02;;;;;;;21.60;10.70;;;;;;;;;;5034051;28;20041;-64
2021/06/06 14:08:28;;;;;;;20.87;10.10;;;;;;;;;;5034608;28;20363;-65
2021/06/06 14:10:54;;;;;;;20.73;9.80;;;;;;;;;;5034453;28;20039;-64
2021/06/06 14:13:27;;;;;;;20.20;9.73;;;;;;;;;;5034691;28;20382;-64
2021/06/06 14:15:53;;;;;;;19.10;10.23;;;;;;;;;;5034096;28;20470;-64
2021/06/06 14:18:19;;;;;;;19.90;10.20;;;;;;;;;;5034126;28;20021;-65
2021/06/06 14:20:44;;;;;;;19.93;9.73;;;;;;;;;;5046446;28;20032;-64
2021/06/06 14:23:10;;;;;;;21.73;10.77;;;;;;;;;;5034172;28;20320;-64
2021/06/06 14:25:36;;;;;;;22.83;10.70;;;;;;;;;;5046088;28;20347;-64
2021/06/06 14:28:02;;;;;;;19.07;10.23;;;;;;;;;;5034663;28;20026;-64
2021/06/06 14:30:29;;;;;;;21.83;10.20;;;;;;;;;;5033781;28;20017;-64
2021/06/06 14:32:54;;;;;;;21.13;10.60;;;;;;;;;;5033636;28;20381;-65
2021/06/06 14:35:20;;;;;;;20.47;10.10;;;;;;;;;;5033775;28;20116;-65
2021/06/06 14:37:46;;;;;;;17.63;8.77;;;;;;;;;;5033434;28;20441;-65
2021/06/06 14:40:13;;;;;;;20.97;10.13;;;;;;;;;;5033873;28;20100;-64